sensor_id;sensor_type;location;lat;lon;timestamp;P1;durP1;ratioP1;P2;durP2;ratioP2
59458;SDS011;45269;43.568;22.244;2023-06-22T00:01:17;16.67;;;14.90;;
59458;SDS011;45269;43.568;22.244;2023-06-22T00:03:43;16.77;;;14.27;;
59458;SDS011;45269;43.568;22.244;2023-06-22T00:06:08;16.33;;;14.82;;
59458;SDS011;45269;43.568;22.244;2023-06-22T00:08:33;17.23;;;15.43;;
59458;SDS011;45269;43.568;22.244;2023-06-22T00:10:59;18.08;;;16.17;;
59458;SDS011;45269;43.568;22.244;2023-06-22T00:13:24;17.98;;;16.13;;
59458;SDS011;45269;43.568;22.244;2023-06-22T00:15:49;17.45;;;15.73;;
59458;SDS011;45269;43.568;22.244;2023-06-22T00:18:15;17.83;;;15.80;;
59458;SDS011;45269;43.568;22.244;2023-06-22T00:20:41;15.63;;;14.00;;
59458;SDS011;45269;43.568;22.244;2023-06-22T00:23:06;16.00;;;14.50;;
59458;SDS011;45269;43.568;22.244;2023-06-22T00:25:35;17.35;;;15.73;;
59458;SDS011;45269;43.568;22.244;2023-06-22T00:28:01;17.52;;;15.90;;
59458;SDS011;45269;43.568;22.244;2023-06-22T00:30:26;16.10;;;14.65;;
59458;SDS011;45269;43.568;22.244;2023-06-22T00:32:51;17.00;;;15.50;;
59458;SDS011;45269;43.568;22.244;2023-06-22T00:35:17;16.13;;;14.82;;
59458;SDS011;45269;43.568;22.244;2023-06-22T00:37:42;16.73;;;15.25;;
59458;SDS011;45269;43.568;22.244;2023-06-22T00:40:08;17.38;;;15.68;;
59458;SDS011;45269;43.568;22.244;2023-06-22T00:42:36;17.40;;;15.60;;
59458;SDS011;45269;43.568;22.244;2023-06-22T00:45:01;15.25;;;13.75;;
59458;SDS011;45269;43.568;22.244;2023-06-22T00:47:27;16.27;;;14.68;;
59458;SDS011;45269;43.568;22.244;2023-06-22T00:49:52;16.63;;;15.07;;
59458;SDS011;45269;43.568;22.244;2023-06-22T00:52:19;16.73;;;15.32;;
59458;SDS011;45269;43.568;22.244;2023-06-22T00:54:47;17.35;;;15.88;;
59458;SDS011;45269;43.568;22.244;2023-06-22T00:57:13;16.65;;;15.13;;
59458;SDS011;45269;43.568;22.244;2023-06-22T00:59:47;15.98;;;14.68;;
59458;SDS011;45269;43.568;22.244;2023-06-22T01:02:13;16.75;;;15.35;;
59458;SDS011;45269;43.568;22.244;2023-06-22T01:04:38;16.60;;;15.10;;
59458;SDS011;45269;43.568;22.244;2023-06-22T01:09:37;16.65;;;15.30;;
59458;SDS011;45269;43.568;22.244;2023-06-22T01:12:05;15.57;;;14.18;;
59458;SDS011;45269;43.568;22.244;2023-06-22T01:14:35;20.70;;;15.18;;
59458;SDS011;45269;43.568;22.244;2023-06-22T01:17:03;15.90;;;14.50;;
59458;SDS011;45269;43.568;22.244;2023-06-22T01:21:58;18.20;;;16.23;;
59458;SDS011;45269;43.568;22.244;2023-06-22T01:25:09;20.25;;;18.13;;
59458;SDS011;45269;43.568;22.244;2023-06-22T01:27:36;27.85;;;21.00;;
59458;SDS011;45269;43.568;22.244;2023-06-22T01:30:06;24.80;;;20.80;;
59458;SDS011;45269;43.568;22.244;2023-06-22T01:32:33;22.73;;;19.63;;
59458;SDS011;45269;43.568;22.244;2023-06-22T01:35:00;19.05;;;17.15;;
59458;SDS011;45269;43.568;22.244;2023-06-22T01:37:26;19.40;;;17.48;;
59458;SDS011;45269;43.568;22.244;2023-06-22T01:39:52;19.27;;;17.05;;
59458;SDS011;45269;43.568;22.244;2023-06-22T01:42:17;18.13;;;16.23;;
59458;SDS011;45269;43.568;22.244;2023-06-22T01:44:43;16.25;;;14.73;;
59458;SDS011;45269;43.568;22.244;2023-06-22T01:47:09;16.17;;;14.75;;
59458;SDS011;45269;43.568;22.244;2023-06-22T01:49:35;15.52;;;14.02;;
59458;SDS011;45269;43.568;22.244;2023-06-22T01:52:00;16.15;;;14.57;;
59458;SDS011;45269;43.568;22.244;2023-06-22T01:54:26;16.63;;;14.68;;
59458;SDS011;45269;43.568;22.244;2023-06-22T01:56:51;17.65;;;15.85;;
59458;SDS011;45269;43.568;22.244;2023-06-22T02:01:51;16.13;;;14.50;;
59458;SDS011;45269;43.568;22.244;2023-06-22T02:04:20;17.63;;;14.68;;
59458;SDS011;45269;43.568;22.244;2023-06-22T02:06:46;15.82;;;14.27;;
59458;SDS011;45269;43.568;22.244;2023-06-22T02:09:14;15.60;;;14.05;;
59458;SDS011;45269;43.568;22.244;2023-06-22T02:11:41;16.48;;;14.88;;
59458;SDS011;45269;43.568;22.244;2023-06-22T02:14:07;16.73;;;15.02;;
59458;SDS011;45269;43.568;22.244;2023-06-22T02:16:33;20.58;;;14.52;;
59458;SDS011;45269;43.568;22.244;2023-06-22T02:18:59;15.00;;;13.55;;
59458;SDS011;45269;43.568;22.244;2023-06-22T02:21:28;15.57;;;13.65;;
59458;SDS011;45269;43.568;22.244;2023-06-22T02:23:53;16.58;;;14.93;;
59458;SDS011;45269;43.568;22.244;2023-06-22T02:26:18;16.80;;;15.38;;
59458;SDS011;45269;43.568;22.244;2023-06-22T02:28:44;15.80;;;14.30;;
59458;SDS011;45269;43.568;22.244;2023-06-22T02:31:10;16.45;;;14.68;;
59458;SDS011;45269;43.568;22.244;2023-06-22T02:33:36;15.68;;;14.18;;
59458;SDS011;45269;43.568;22.244;2023-06-22T02:36:01;15.85;;;14.25;;
59458;SDS011;45269;43.568;22.244;2023-06-22T02:38:30;16.47;;;15.10;;
59458;SDS011;45269;43.568;22.244;2023-06-22T02:40:58;15.02;;;13.55;;
59458;SDS011;45269;43.568;22.244;2023-06-22T02:43:23;16.33;;;14.77;;
59458;SDS011;45269;43.568;22.244;2023-06-22T02:45:49;15.98;;;14.27;;
59458;SDS011;45269;43.568;22.244;2023-06-22T02:48:14;16.83;;;14.25;;
59458;SDS011;45269;43.568;22.244;2023-06-22T02:50:39;16.38;;;14.77;;
59458;SDS011;45269;43.568;22.244;2023-06-22T02:53:05;15.20;;;13.77;;
59458;SDS011;45269;43.568;22.244;2023-06-22T02:55:30;21.00;;;14.98;;
59458;SDS011;45269;43.568;22.244;2023-06-22T02:57:56;15.52;;;13.57;;
59458;SDS011;45269;43.568;22.244;2023-06-22T03:00:24;15.20;;;13.77;;
59458;SDS011;45269;43.568;22.244;2023-06-22T03:02:55;16.50;;;14.85;;
59458;SDS011;45269;43.568;22.244;2023-06-22T03:05:21;15.18;;;13.88;;
59458;SDS011;45269;43.568;22.244;2023-06-22T03:07:47;16.33;;;14.73;;
59458;SDS011;45269;43.568;22.244;2023-06-22T03:10:13;16.25;;;14.70;;
59458;SDS011;45269;43.568;22.244;2023-06-22T03:12:38;15.10;;;13.65;;
59458;SDS011;45269;43.568;22.244;2023-06-22T03:15:12;15.70;;;14.07;;
59458;SDS011;45269;43.568;22.244;2023-06-22T03:17:38;15.60;;;14.07;;
59458;SDS011;45269;43.568;22.244;2023-06-22T03:20:05;15.52;;;13.98;;
59458;SDS011;45269;43.568;22.244;2023-06-22T03:22:35;15.65;;;14.15;;
59458;SDS011;45269;43.568;22.244;2023-06-22T03:25:00;15.77;;;14.32;;
59458;SDS011;45269;43.568;22.244;2023-06-22T03:27:26;15.30;;;13.90;;
59458;SDS011;45269;43.568;22.244;2023-06-22T03:29:51;15.60;;;14.00;;
59458;SDS011;45269;43.568;22.244;2023-06-22T03:32:16;16.05;;;14.35;;
59458;SDS011;45269;43.568;22.244;2023-06-22T03:34:42;16.25;;;14.75;;
59458;SDS011;45269;43.568;22.244;2023-06-22T03:37:12;15.38;;;13.93;;
59458;SDS011;45269;43.568;22.244;2023-06-22T03:39:37;14.77;;;13.38;;
59458;SDS011;45269;43.568;22.244;2023-06-22T03:42:03;15.60;;;14.10;;
59458;SDS011;45269;43.568;22.244;2023-06-22T03:44:28;16.60;;;15.00;;
59458;SDS011;45269;43.568;22.244;2023-06-22T03:46:54;16.85;;;15.25;;
59458;SDS011;45269;43.568;22.244;2023-06-22T03:49:19;16.73;;;15.27;;
59458;SDS011;45269;43.568;22.244;2023-06-22T03:51:44;16.90;;;15.30;;
59458;SDS011;45269;43.568;22.244;2023-06-22T03:54:10;15.75;;;14.20;;
59458;SDS011;45269;43.568;22.244;2023-06-22T03:56:35;16.67;;;13.70;;
59458;SDS011;45269;43.568;22.244;2023-06-22T03:59:00;15.55;;;14.15;;
59458;SDS011;45269;43.568;22.244;2023-06-22T04:01:26;15.43;;;13.73;;
59458;SDS011;45269;43.568;22.244;2023-06-22T04:03:51;16.05;;;14.38;;
59458;SDS011;45269;43.568;22.244;2023-06-22T04:06:16;15.15;;;13.80;;
59458;SDS011;45269;43.568;22.244;2023-06-22T04:08:42;15.77;;;14.32;;
59458;SDS011;45269;43.568;22.244;2023-06-22T04:11:07;14.95;;;13.57;;
59458;SDS011;45269;43.568;22.244;2023-06-22T04:13:32;14.98;;;13.40;;
59458;SDS011;45269;43.568;22.244;2023-06-22T04:15:58;15.23;;;13.93;;
59458;SDS011;45269;43.568;22.244;2023-06-22T04:18:23;16.25;;;14.77;;
59458;SDS011;45269;43.568;22.244;2023-06-22T04:20:49;14.75;;;13.35;;
59458;SDS011;45269;43.568;22.244;2023-06-22T04:23:14;15.27;;;13.98;;
59458;SDS011;45269;43.568;22.244;2023-06-22T04:25:39;15.25;;;13.82;;
59458;SDS011;45269;43.568;22.244;2023-06-22T04:28:05;15.43;;;13.73;;
59458;SDS011;45269;43.568;22.244;2023-06-22T04:30:32;15.40;;;14.00;;
59458;SDS011;45269;43.568;22.244;2023-06-22T04:32:57;15.35;;;13.80;;
59458;SDS011;45269;43.568;22.244;2023-06-22T04:35:26;15.73;;;14.15;;
59458;SDS011;45269;43.568;22.244;2023-06-22T04:37:52;14.73;;;13.38;;
59458;SDS011;45269;43.568;22.244;2023-06-22T04:40:20;14.98;;;13.27;;
59458;SDS011;45269;43.568;22.244;2023-06-22T04:42:45;16.90;;;14.85;;
59458;SDS011;45269;43.568;22.244;2023-06-22T04:45:17;15.45;;;14.13;;
59458;SDS011;45269;43.568;22.244;2023-06-22T04:47:42;14.63;;;13.23;;
59458;SDS011;45269;43.568;22.244;2023-06-22T04:50:10;15.95;;;14.38;;
59458;SDS011;45269;43.568;22.244;2023-06-22T04:52:35;16.13;;;14.48;;
59458;SDS011;45269;43.568;22.244;2023-06-22T04:55:01;16.92;;;15.32;;
59458;SDS011;45269;43.568;22.244;2023-06-22T04:57:27;14.90;;;13.38;;
59458;SDS011;45269;43.568;22.244;2023-06-22T04:59:57;15.50;;;14.07;;
59458;SDS011;45269;43.568;22.244;2023-06-22T05:02:22;15.25;;;13.90;;
59458;SDS011;45269;43.568;22.244;2023-06-22T05:04:52;17.15;;;14.63;;
59458;SDS011;45269;43.568;22.244;2023-06-22T05:07:21;16.58;;;14.98;;
59458;SDS011;45269;43.568;22.244;2023-06-22T05:09:50;16.83;;;15.03;;
59458;SDS011;45269;43.568;22.244;2023-06-22T05:12:15;17.52;;;15.82;;
59458;SDS011;45269;43.568;22.244;2023-06-22T05:14:41;17.35;;;15.48;;
59458;SDS011;45269;43.568;22.244;2023-06-22T05:17:06;21.30;;;15.75;;
59458;SDS011;45269;43.568;22.244;2023-06-22T05:19:38;18.92;;;17.02;;
59458;SDS011;45269;43.568;22.244;2023-06-22T05:22:04;20.77;;;17.15;;
59458;SDS011;45269;43.568;22.244;2023-06-22T05:24:31;18.80;;;16.88;;
59458;SDS011;45269;43.568;22.244;2023-06-22T05:26:56;19.08;;;17.05;;
59458;SDS011;45269;43.568;22.244;2023-06-22T05:29:22;17.02;;;15.45;;
59458;SDS011;45269;43.568;22.244;2023-06-22T05:31:48;17.98;;;15.88;;
59458;SDS011;45269;43.568;22.244;2023-06-22T05:34:13;17.45;;;15.85;;
59458;SDS011;45269;43.568;22.244;2023-06-22T05:36:39;16.73;;;15.05;;
59458;SDS011;45269;43.568;22.244;2023-06-22T05:39:10;16.48;;;14.98;;
59458;SDS011;45269;43.568;22.244;2023-06-22T05:41:36;16.90;;;15.40;;
59458;SDS011;45269;43.568;22.244;2023-06-22T05:44:02;16.85;;;15.25;;
59458;SDS011;45269;43.568;22.244;2023-06-22T05:46:27;16.92;;;15.32;;
59458;SDS011;45269;43.568;22.244;2023-06-22T05:48:52;17.08;;;15.50;;
59458;SDS011;45269;43.568;22.244;2023-06-22T05:51:18;16.27;;;14.60;;
59458;SDS011;45269;43.568;22.244;2023-06-22T05:53:43;16.45;;;14.93;;
59458;SDS011;45269;43.568;22.244;2023-06-22T05:56:09;16.25;;;14.75;;
59458;SDS011;45269;43.568;22.244;2023-06-22T05:58:35;16.45;;;14.77;;
59458;SDS011;45269;43.568;22.244;2023-06-22T06:01:00;16.00;;;14.38;;
59458;SDS011;45269;43.568;22.244;2023-06-22T06:03:25;18.25;;;14.43;;
59458;SDS011;45269;43.568;22.244;2023-06-22T06:05:53;15.82;;;14.23;;
59458;SDS011;45269;43.568;22.244;2023-06-22T06:08:19;15.40;;;13.90;;
59458;SDS011;45269;43.568;22.244;2023-06-22T06:10:44;17.40;;;15.75;;
59458;SDS011;45269;43.568;22.244;2023-06-22T06:13:09;17.42;;;15.80;;
59458;SDS011;45269;43.568;22.244;2023-06-22T06:15:35;17.73;;;16.10;;
59458;SDS011;45269;43.568;22.244;2023-06-22T06:18:00;16.58;;;14.65;;
59458;SDS011;45269;43.568;22.244;2023-06-22T06:20:27;17.35;;;14.57;;
59458;SDS011;45269;43.568;22.244;2023-06-22T06:22:55;15.85;;;14.07;;
59458;SDS011;45269;43.568;22.244;2023-06-22T06:25:21;14.85;;;13.55;;
59458;SDS011;45269;43.568;22.244;2023-06-22T06:27:47;14.50;;;13.07;;
59458;SDS011;45269;43.568;22.244;2023-06-22T06:30:13;14.25;;;12.95;;
59458;SDS011;45269;43.568;22.244;2023-06-22T06:32:39;15.07;;;13.65;;
59458;SDS011;45269;43.568;22.244;2023-06-22T06:35:09;15.15;;;13.75;;
59458;SDS011;45269;43.568;22.244;2023-06-22T06:37:38;14.15;;;12.73;;
59458;SDS011;45269;43.568;22.244;2023-06-22T06:40:04;15.85;;;13.73;;
59458;SDS011;45269;43.568;22.244;2023-06-22T06:42:30;14.77;;;13.50;;
59458;SDS011;45269;43.568;22.244;2023-06-22T06:44:56;14.57;;;13.10;;
59458;SDS011;45269;43.568;22.244;2023-06-22T06:47:21;14.30;;;13.00;;
59458;SDS011;45269;43.568;22.244;2023-06-22T06:49:47;15.55;;;14.15;;
59458;SDS011;45269;43.568;22.244;2023-06-22T06:52:12;13.98;;;12.68;;
59458;SDS011;45269;43.568;22.244;2023-06-22T06:54:37;13.77;;;12.40;;
59458;SDS011;45269;43.568;22.244;2023-06-22T06:57:03;13.60;;;12.52;;
59458;SDS011;45269;43.568;22.244;2023-06-22T06:59:29;14.63;;;13.43;;
59458;SDS011;45269;43.568;22.244;2023-06-22T07:01:55;14.82;;;13.52;;
59458;SDS011;45269;43.568;22.244;2023-06-22T07:04:21;16.58;;;14.07;;
59458;SDS011;45269;43.568;22.244;2023-06-22T07:06:46;14.88;;;13.40;;
59458;SDS011;45269;43.568;22.244;2023-06-22T07:09:11;15.35;;;13.45;;
59458;SDS011;45269;43.568;22.244;2023-06-22T07:11:37;16.00;;;14.30;;
59458;SDS011;45269;43.568;22.244;2023-06-22T07:14:02;14.02;;;12.80;;
59458;SDS011;45269;43.568;22.244;2023-06-22T07:16:27;15.07;;;13.70;;
59458;SDS011;45269;43.568;22.244;2023-06-22T07:18:53;14.70;;;13.38;;
59458;SDS011;45269;43.568;22.244;2023-06-22T07:21:19;15.18;;;13.88;;
59458;SDS011;45269;43.568;22.244;2023-06-22T07:23:44;17.88;;;13.32;;
59458;SDS011;45269;43.568;22.244;2023-06-22T07:26:09;15.00;;;13.48;;
59458;SDS011;45269;43.568;22.244;2023-06-22T07:28:37;15.52;;;13.73;;
59458;SDS011;45269;43.568;22.244;2023-06-22T07:31:03;16.00;;;14.45;;
59458;SDS011;45269;43.568;22.244;2023-06-22T07:33:29;14.32;;;13.02;;
59458;SDS011;45269;43.568;22.244;2023-06-22T07:35:54;14.07;;;12.70;;
59458;SDS011;45269;43.568;22.244;2023-06-22T07:38:20;13.57;;;11.43;;
59458;SDS011;45269;43.568;22.244;2023-06-22T07:40:45;12.70;;;11.55;;
59458;SDS011;45269;43.568;22.244;2023-06-22T07:43:10;13.25;;;11.90;;
59458;SDS011;45269;43.568;22.244;2023-06-22T07:45:37;12.40;;;11.38;;
59458;SDS011;45269;43.568;22.244;2023-06-22T07:48:03;12.25;;;11.25;;
59458;SDS011;45269;43.568;22.244;2023-06-22T07:50:28;12.48;;;11.38;;
59458;SDS011;45269;43.568;22.244;2023-06-22T07:52:54;11.38;;;10.40;;
59458;SDS011;45269;43.568;22.244;2023-06-22T07:55:19;11.10;;;10.27;;
59458;SDS011;45269;43.568;22.244;2023-06-22T07:57:46;11.02;;;10.02;;
59458;SDS011;45269;43.568;22.244;2023-06-22T08:00:12;9.93;;;8.88;;
59458;SDS011;45269;43.568;22.244;2023-06-22T08:02:40;10.05;;;9.25;;
59458;SDS011;45269;43.568;22.244;2023-06-22T08:05:06;9.77;;;8.98;;
59458;SDS011;45269;43.568;22.244;2023-06-22T08:07:33;9.98;;;9.05;;
59458;SDS011;45269;43.568;22.244;2023-06-22T08:09:58;10.07;;;9.23;;
59458;SDS011;45269;43.568;22.244;2023-06-22T08:12:24;9.43;;;8.60;;
59458;SDS011;45269;43.568;22.244;2023-06-22T08:14:49;9.43;;;8.52;;
59458;SDS011;45269;43.568;22.244;2023-06-22T08:17:15;10.02;;;9.23;;
59458;SDS011;45269;43.568;22.244;2023-06-22T08:19:40;10.48;;;9.38;;
59458;SDS011;45269;43.568;22.244;2023-06-22T08:22:06;9.73;;;8.93;;
59458;SDS011;45269;43.568;22.244;2023-06-22T08:24:31;9.70;;;8.90;;
59458;SDS011;45269;43.568;22.244;2023-06-22T08:26:57;9.40;;;8.55;;
59458;SDS011;45269;43.568;22.244;2023-06-22T08:29:22;9.52;;;8.63;;
59458;SDS011;45269;43.568;22.244;2023-06-22T08:31:47;9.43;;;8.57;;
59458;SDS011;45269;43.568;22.244;2023-06-22T08:34:13;10.27;;;9.40;;
59458;SDS011;45269;43.568;22.244;2023-06-22T08:36:38;9.70;;;8.80;;
59458;SDS011;45269;43.568;22.244;2023-06-22T08:39:09;10.20;;;8.73;;
59458;SDS011;45269;43.568;22.244;2023-06-22T08:41:35;9.73;;;8.88;;
59458;SDS011;45269;43.568;22.244;2023-06-22T08:44:00;10.20;;;9.40;;
59458;SDS011;45269;43.568;22.244;2023-06-22T08:46:26;9.18;;;8.18;;
59458;SDS011;45269;43.568;22.244;2023-06-22T08:48:56;9.75;;;8.88;;
59458;SDS011;45269;43.568;22.244;2023-06-22T08:51:23;9.55;;;8.65;;
59458;SDS011;45269;43.568;22.244;2023-06-22T08:53:49;9.35;;;8.55;;
59458;SDS011;45269;43.568;22.244;2023-06-22T08:56:15;10.40;;;9.48;;
59458;SDS011;45269;43.568;22.244;2023-06-22T08:58:40;8.88;;;8.07;;
59458;SDS011;45269;43.568;22.244;2023-06-22T09:01:05;9.38;;;8.27;;
59458;SDS011;45269;43.568;22.244;2023-06-22T09:03:31;9.88;;;9.07;;
59458;SDS011;45269;43.568;22.244;2023-06-22T09:05:58;8.95;;;8.18;;
59458;SDS011;45269;43.568;22.244;2023-06-22T09:08:23;9.27;;;8.50;;
59458;SDS011;45269;43.568;22.244;2023-06-22T09:10:48;8.45;;;7.75;;
59458;SDS011;45269;43.568;22.244;2023-06-22T09:13:14;9.63;;;8.05;;
59458;SDS011;45269;43.568;22.244;2023-06-22T09:15:39;9.48;;;8.60;;
59458;SDS011;45269;43.568;22.244;2023-06-22T09:18:04;8.98;;;8.18;;
59458;SDS011;45269;43.568;22.244;2023-06-22T09:20:30;9.10;;;8.30;;
59458;SDS011;45269;43.568;22.244;2023-06-22T09:22:56;8.30;;;7.60;;
59458;SDS011;45269;43.568;22.244;2023-06-22T09:25:21;8.82;;;7.88;;
59458;SDS011;45269;43.568;22.244;2023-06-22T09:27:47;9.20;;;8.35;;
59458;SDS011;45269;43.568;22.244;2023-06-22T09:30:12;8.57;;;7.88;;
59458;SDS011;45269;43.568;22.244;2023-06-22T09:32:38;8.20;;;7.43;;
59458;SDS011;45269;43.568;22.244;2023-06-22T09:35:04;8.27;;;7.45;;
59458;SDS011;45269;43.568;22.244;2023-06-22T09:37:30;9.18;;;8.23;;
59458;SDS011;45269;43.568;22.244;2023-06-22T09:39:56;8.40;;;7.72;;
59458;SDS011;45269;43.568;22.244;2023-06-22T09:42:21;8.95;;;7.97;;
59458;SDS011;45269;43.568;22.244;2023-06-22T09:44:46;8.65;;;7.85;;
59458;SDS011;45269;43.568;22.244;2023-06-22T09:47:12;8.20;;;7.50;;
59458;SDS011;45269;43.568;22.244;2023-06-22T09:49:37;8.63;;;7.82;;
59458;SDS011;45269;43.568;22.244;2023-06-22T09:52:02;8.57;;;7.80;;
59458;SDS011;45269;43.568;22.244;2023-06-22T09:54:28;9.77;;;7.88;;
59458;SDS011;45269;43.568;22.244;2023-06-22T09:56:53;9.15;;;8.25;;
59458;SDS011;45269;43.568;22.244;2023-06-22T09:59:18;8.77;;;8.00;;
59458;SDS011;45269;43.568;22.244;2023-06-22T10:01:44;8.73;;;8.02;;
59458;SDS011;45269;43.568;22.244;2023-06-22T10:04:09;8.05;;;7.45;;
59458;SDS011;45269;43.568;22.244;2023-06-22T10:06:34;8.15;;;7.45;;
59458;SDS011;45269;43.568;22.244;2023-06-22T10:08:59;7.80;;;7.28;;
59458;SDS011;45269;43.568;22.244;2023-06-22T10:11:25;8.20;;;7.60;;
59458;SDS011;45269;43.568;22.244;2023-06-22T10:13:54;7.68;;;7.05;;
59458;SDS011;45269;43.568;22.244;2023-06-22T10:16:19;8.65;;;7.78;;
59458;SDS011;45269;43.568;22.244;2023-06-22T10:18:45;8.18;;;7.57;;
59458;SDS011;45269;43.568;22.244;2023-06-22T10:21:10;8.23;;;7.63;;
59458;SDS011;45269;43.568;22.244;2023-06-22T10:23:35;8.68;;;7.90;;
59458;SDS011;45269;43.568;22.244;2023-06-22T10:26:01;9.23;;;7.78;;
59458;SDS011;45269;43.568;22.244;2023-06-22T10:28:26;8.23;;;7.63;;
59458;SDS011;45269;43.568;22.244;2023-06-22T10:30:51;7.88;;;7.28;;
59458;SDS011;45269;43.568;22.244;2023-06-22T10:33:17;7.80;;;7.20;;
59458;SDS011;45269;43.568;22.244;2023-06-22T10:35:42;7.85;;;7.25;;
59458;SDS011;45269;43.568;22.244;2023-06-22T10:38:08;8.30;;;7.60;;
59458;SDS011;45269;43.568;22.244;2023-06-22T10:40:33;7.32;;;6.68;;
59458;SDS011;45269;43.568;22.244;2023-06-22T10:42:58;7.72;;;7.13;;
59458;SDS011;45269;43.568;22.244;2023-06-22T10:45:24;12.80;;;7.18;;
59458;SDS011;45269;43.568;22.244;2023-06-22T10:47:49;7.47;;;6.88;;
59458;SDS011;45269;43.568;22.244;2023-06-22T10:50:14;6.63;;;6.03;;
59458;SDS011;45269;43.568;22.244;2023-06-22T10:52:40;7.40;;;6.53;;
59458;SDS011;45269;43.568;22.244;2023-06-22T10:55:07;7.78;;;7.00;;
59458;SDS011;45269;43.568;22.244;2023-06-22T10:57:32;8.07;;;7.38;;
59458;SDS011;45269;43.568;22.244;2023-06-22T10:59:58;8.30;;;7.60;;
59458;SDS011;45269;43.568;22.244;2023-06-22T11:02:23;7.55;;;6.95;;
59458;SDS011;45269;43.568;22.244;2023-06-22T11:04:49;7.78;;;7.18;;
59458;SDS011;45269;43.568;22.244;2023-06-22T11:07:15;7.03;;;6.43;;
59458;SDS011;45269;43.568;22.244;2023-06-22T11:09:40;7.55;;;6.95;;
59458;SDS011;45269;43.568;22.244;2023-06-22T11:12:07;7.45;;;6.93;;
59458;SDS011;45269;43.568;22.244;2023-06-22T11:14:33;8.00;;;7.18;;
59458;SDS011;45269;43.568;22.244;2023-06-22T11:16:58;7.75;;;7.15;;
59458;SDS011;45269;43.568;22.244;2023-06-22T11:19:24;7.72;;;7.13;;
59458;SDS011;45269;43.568;22.244;2023-06-22T11:21:49;8.45;;;7.75;;
59458;SDS011;45269;43.568;22.244;2023-06-22T11:24:14;7.47;;;6.97;;
59458;SDS011;45269;43.568;22.244;2023-06-22T11:26:41;7.95;;;7.25;;
59458;SDS011;45269;43.568;22.244;2023-06-22T11:29:06;8.30;;;7.70;;
59458;SDS011;45269;43.568;22.244;2023-06-22T11:31:33;7.45;;;6.80;;
59458;SDS011;45269;43.568;22.244;2023-06-22T11:33:59;8.10;;;7.30;;
59458;SDS011;45269;43.568;22.244;2023-06-22T11:36:24;7.93;;;7.13;;
59458;SDS011;45269;43.568;22.244;2023-06-22T11:38:50;8.45;;;7.65;;
59458;SDS011;45269;43.568;22.244;2023-06-22T11:41:16;8.68;;;7.97;;
59458;SDS011;45269;43.568;22.244;2023-06-22T11:43:42;7.55;;;6.95;;
59458;SDS011;45269;43.568;22.244;2023-06-22T11:46:07;8.20;;;7.40;;
59458;SDS011;45269;43.568;22.244;2023-06-22T11:48:32;7.97;;;7.38;;
59458;SDS011;45269;43.568;22.244;2023-06-22T11:50:58;7.65;;;7.05;;
59458;SDS011;45269;43.568;22.244;2023-06-22T11:53:25;8.00;;;7.22;;
59458;SDS011;45269;43.568;22.244;2023-06-22T11:55:50;8.63;;;7.22;;
59458;SDS011;45269;43.568;22.244;2023-06-22T11:58:16;9.73;;;7.32;;
59458;SDS011;45269;43.568;22.244;2023-06-22T12:00:41;8.23;;;7.63;;
59458;SDS011;45269;43.568;22.244;2023-06-22T12:03:07;7.95;;;7.38;;
59458;SDS011;45269;43.568;22.244;2023-06-22T12:05:32;8.00;;;7.38;;
59458;SDS011;45269;43.568;22.244;2023-06-22T12:07:58;8.23;;;7.53;;
59458;SDS011;45269;43.568;22.244;2023-06-22T12:10:24;8.13;;;7.35;;
59458;SDS011;45269;43.568;22.244;2023-06-22T12:12:50;8.10;;;7.30;;
59458;SDS011;45269;43.568;22.244;2023-06-22T12:15:15;8.20;;;7.50;;
59458;SDS011;45269;43.568;22.244;2023-06-22T12:17:41;7.82;;;7.13;;
59458;SDS011;45269;43.568;22.244;2023-06-22T12:20:06;7.70;;;7.20;;
59458;SDS011;45269;43.568;22.244;2023-06-22T12:22:32;7.90;;;7.40;;
59458;SDS011;45269;43.568;22.244;2023-06-22T12:24:58;8.35;;;7.55;;
59458;SDS011;45269;43.568;22.244;2023-06-22T12:27:24;8.25;;;7.40;;
59458;SDS011;45269;43.568;22.244;2023-06-22T12:29:49;10.80;;;7.60;;
59458;SDS011;45269;43.568;22.244;2023-06-22T12:32:15;7.63;;;7.03;;
59458;SDS011;45269;43.568;22.244;2023-06-22T12:34:44;7.72;;;7.03;;
59458;SDS011;45269;43.568;22.244;2023-06-22T12:37:09;8.45;;;7.43;;
59458;SDS011;45269;43.568;22.244;2023-06-22T12:39:35;8.02;;;7.38;;
59458;SDS011;45269;43.568;22.244;2023-06-22T12:42:00;8.73;;;7.30;;
59458;SDS011;45269;43.568;22.244;2023-06-22T12:44:25;7.68;;;7.10;;
59458;SDS011;45269;43.568;22.244;2023-06-22T12:46:51;7.53;;;6.93;;
59458;SDS011;45269;43.568;22.244;2023-06-22T12:49:16;7.47;;;6.78;;
59458;SDS011;45269;43.568;22.244;2023-06-22T12:51:42;8.15;;;6.82;;
59458;SDS011;45269;43.568;22.244;2023-06-22T12:54:08;8.43;;;7.60;;
59458;SDS011;45269;43.568;22.244;2023-06-22T12:56:33;7.75;;;7.15;;
59458;SDS011;45269;43.568;22.244;2023-06-22T12:58:59;7.80;;;7.10;;
59458;SDS011;45269;43.568;22.244;2023-06-22T13:01:27;7.60;;;6.90;;
59458;SDS011;45269;43.568;22.244;2023-06-22T13:03:52;7.47;;;6.88;;
59458;SDS011;45269;43.568;22.244;2023-06-22T13:06:17;8.25;;;7.55;;
59458;SDS011;45269;43.568;22.244;2023-06-22T13:08:42;9.40;;;7.18;;
59458;SDS011;45269;43.568;22.244;2023-06-22T13:11:08;9.23;;;7.15;;
59458;SDS011;45269;43.568;22.244;2023-06-22T13:13:33;9.88;;;6.82;;
59458;SDS011;45269;43.568;22.244;2023-06-22T13:15:59;7.88;;;7.18;;
59458;SDS011;45269;43.568;22.244;2023-06-22T13:18:24;7.85;;;7.15;;
59458;SDS011;45269;43.568;22.244;2023-06-22T13:20:49;8.82;;;8.02;;
59458;SDS011;45269;43.568;22.244;2023-06-22T13:23:15;8.48;;;7.68;;
59458;SDS011;45269;43.568;22.244;2023-06-22T13:25:40;8.82;;;7.93;;
59458;SDS011;45269;43.568;22.244;2023-06-22T13:28:05;8.57;;;7.75;;
59458;SDS011;45269;43.568;22.244;2023-06-22T13:30:31;8.65;;;7.85;;
59458;SDS011;45269;43.568;22.244;2023-06-22T13:32:57;9.18;;;7.70;;
59458;SDS011;45269;43.568;22.244;2023-06-22T13:35:22;9.13;;;8.10;;
59458;SDS011;45269;43.568;22.244;2023-06-22T13:37:47;8.20;;;7.50;;
59458;SDS011;45269;43.568;22.244;2023-06-22T13:40:13;8.82;;;7.93;;
59458;SDS011;45269;43.568;22.244;2023-06-22T13:42:38;8.80;;;8.07;;
59458;SDS011;45269;43.568;22.244;2023-06-22T13:45:04;9.02;;;8.13;;
59458;SDS011;45269;43.568;22.244;2023-06-22T13:47:30;9.30;;;8.30;;
59458;SDS011;45269;43.568;22.244;2023-06-22T13:49:55;9.10;;;8.35;;
59458;SDS011;45269;43.568;22.244;2023-06-22T13:52:22;9.95;;;9.13;;
59458;SDS011;45269;43.568;22.244;2023-06-22T13:54:48;9.05;;;8.25;;
59458;SDS011;45269;43.568;22.244;2023-06-22T13:57:13;10.07;;;9.27;;
59458;SDS011;45269;43.568;22.244;2023-06-22T13:59:38;9.85;;;8.68;;
59458;SDS011;45269;43.568;22.244;2023-06-22T14:02:04;9.00;;;8.27;;
59458;SDS011;45269;43.568;22.244;2023-06-22T14:04:29;9.02;;;8.30;;
59458;SDS011;45269;43.568;22.244;2023-06-22T14:06:55;9.60;;;8.80;;
59458;SDS011;45269;43.568;22.244;2023-06-22T14:09:21;9.98;;;8.75;;
59458;SDS011;45269;43.568;22.244;2023-06-22T14:11:46;9.30;;;8.40;;
59458;SDS011;45269;43.568;22.244;2023-06-22T14:14:11;9.45;;;8.63;;
59458;SDS011;45269;43.568;22.244;2023-06-22T14:16:38;9.82;;;9.02;;
59458;SDS011;45269;43.568;22.244;2023-06-22T14:19:03;10.82;;;9.13;;
59458;SDS011;45269;43.568;22.244;2023-06-22T14:21:29;9.20;;;8.50;;